Time;durP1;ratioP1;P1;durP2;ratioP2;P2;SDS_P1;SDS_P2;PMS_P1;PMS_P2;Temp;Humidity;BMP_temperature;BMP_pressure;BME280_temperature;BME280_humidity;BME280_pressure;Samples;Min_cycle;Max_cycle;Signal;HPM_P1;HPM_P2
2023/05/17 00:00:08;;;;;;;3.93;1.73;;;10.60;99.90;;;;;;5098337;28;20170;-74
2023/05/17 00:02:34;;;;;;;9.57;2.03;;;10.40;99.90;;;;;;5088796;28;20246;-71
2023/05/17 00:05:00;;;;;;;7.60;1.97;;;10.40;99.90;;;;;;5091338;28;20722;-73
2023/05/17 00:07:26;;;;;;;7.30;2.30;;;10.40;99.90;;;;;;5107748;28;20197;-73
2023/05/17 00:09:51;;;;;;;7.23;1.93;;;10.30;99.90;;;;;;5106932;28;20197;-73
2023/05/17 00:12:17;;;;;;;4.23;1.53;;;10.30;99.90;;;;;;5099669;28;20182;-72
2023/05/17 00:14:43;;;;;;;5.53;1.50;;;10.30;99.90;;;;;;5104223;28;20284;-72
2023/05/17 00:17:08;;;;;;;4.83;1.73;;;10.30;99.90;;;;;;5105782;28;20202;-73
2023/05/17 00:19:34;;;;;;;5.83;1.90;;;10.30;99.90;;;;;;5106884;28;20301;-74
2023/05/17 00:22:00;;;;;;;5.33;2.07;;;10.20;99.90;;;;;;5084861;28;20209;-73
2023/05/17 00:24:26;;;;;;;10.83;2.50;;;10.20;99.90;;;;;;5102108;28;20194;-72
2023/05/17 00:26:51;;;;;;;10.03;2.67;;;10.20;99.90;;;;;;5087066;28;20178;-72
2023/05/17 00:29:17;;;;;;;6.67;2.37;;;10.10;99.90;;;;;;5099833;28;20726;-72
2023/05/17 00:31:43;;;;;;;9.93;1.77;;;10.20;99.90;;;;;;5106413;28;20649;-73
2023/05/17 00:34:08;;;;;;;5.33;1.70;;;10.20;99.90;;;;;;5098916;28;20772;-73
2023/05/17 00:36:34;;;;;;;6.20;2.40;;;10.30;99.90;;;;;;5104751;28;20186;-72
2023/05/17 00:39:00;;;;;;;8.93;2.10;;;10.30;99.90;;;;;;5105641;28;20174;-73
2023/05/17 00:41:25;;;;;;;6.60;2.47;;;10.30;99.90;;;;;;5101377;28;20786;-73
2023/05/17 00:43:51;;;;;;;9.00;2.30;;;10.30;99.90;;;;;;5092930;28;20209;-73
2023/05/17 00:46:16;;;;;;;5.07;1.87;;;10.20;99.90;;;;;;5105286;28;20209;-73
2023/05/17 00:48:42;;;;;;;5.00;2.00;;;10.10;99.90;;;;;;5108097;28;20710;-71
2023/05/17 00:51:08;;;;;;;16.13;2.90;;;10.10;99.90;;;;;;5104895;28;20231;-72
2023/05/17 00:53:36;;;;;;;8.50;2.33;;;10.00;99.90;;;;;;5107932;28;20262;-72
2023/05/17 00:56:02;;;;;;;10.03;2.43;;;10.10;99.90;;;;;;5102124;28;20301;-73
2023/05/17 00:58:29;;;;;;;8.07;2.73;;;10.10;99.90;;;;;;5098078;28;20237;-73
2023/05/17 01:00:55;;;;;;;13.10;2.90;;;10.10;99.90;;;;;;5106180;28;20205;-73
2023/05/17 01:03:23;;;;;;;11.50;2.17;;;10.00;99.90;;;;;;5098205;28;20189;-73
2023/05/17 01:05:50;;;;;;;7.13;2.20;;;10.00;99.90;;;;;;5085493;28;20199;-73
2023/05/17 01:08:15;;;;;;;10.83;2.93;;;10.00;99.90;;;;;;5098528;28;20214;-73
2023/05/17 01:10:54;;;;;;;13.30;3.00;;;10.00;99.90;;;;;;5106860;28;20216;-72
2023/05/17 01:13:30;;;;;;;7.57;2.40;;;10.00;99.90;;;;;;5094057;28;20216;-72
2023/05/17 01:16:12;;;;;;;8.87;3.17;;;9.90;99.90;;;;;;5104620;28;20267;-72
2023/05/17 01:18:43;;;;;;;5.53;2.40;;;9.90;99.90;;;;;;5099638;28;20661;-73
2023/05/17 01:21:40;;;;;;;7.60;2.13;;;9.90;99.90;;;;;;5103766;28;20735;-72
2023/05/17 01:24:22;;;;;;;5.87;2.27;;;9.80;99.90;;;;;;5101833;28;20586;-73
2023/05/17 01:26:50;;;;;;;10.60;3.60;;;9.60;99.90;;;;;;5102600;28;20578;-73
2023/05/17 01:29:21;;;;;;;12.80;3.17;;;9.90;99.90;;;;;;5085845;28;20679;-72
2023/05/17 01:31:48;;;;;;;7.27;2.70;;;9.90;99.90;;;;;;5100351;28;20202;-72
2023/05/17 01:34:27;;;;;;;9.13;2.67;;;9.80;99.90;;;;;;5104651;28;20217;-72
2023/05/17 01:36:52;;;;;;;8.23;2.77;;;9.90;99.90;;;;;;5103679;28;20209;-72
2023/05/17 01:39:18;;;;;;;7.13;2.37;;;9.90;99.90;;;;;;5085592;28;20208;-72
2023/05/17 01:41:53;;;;;;;9.97;2.60;;;9.80;99.90;;;;;;5086040;28;20279;-71
2023/05/17 01:44:28;;;;;;;7.73;2.57;;;9.80;99.90;;;;;;5104611;28;20974;-71
2023/05/17 01:47:01;;;;;;;9.13;2.80;;;9.80;99.90;;;;;;5099130;28;20212;-74
2023/05/17 01:49:31;;;;;;;6.93;2.30;;;9.80;99.90;;;;;;5102076;28;20305;-73
2023/05/17 01:52:06;;;;;;;11.57;3.37;;;9.80;99.90;;;;;;5103319;28;20321;-72
2023/05/17 01:54:42;;;;;;;8.00;2.60;;;9.70;99.90;;;;;;5085333;28;20206;-71
2023/05/17 01:57:10;;;;;;;5.20;2.40;;;9.80;99.90;;;;;;5099785;28;20256;-72
2023/05/17 01:59:37;;;;;;;6.87;2.67;;;9.70;99.90;;;;;;5106197;28;20224;-72
2023/05/17 02:02:08;;;;;;;12.43;2.73;;;9.70;99.90;;;;;;5108790;28;20316;-71
2023/05/17 02:04:35;;;;;;;12.53;3.10;;;9.70;99.90;;;;;;5107166;28;20206;-73
2023/05/17 02:07:01;;;;;;;10.03;2.43;;;9.80;99.90;;;;;;5103173;28;20271;-72
2023/05/17 02:09:27;;;;;;;8.53;2.60;;;9.70;99.90;;;;;;5101631;28;20225;-72
2023/05/17 02:11:52;;;;;;;10.23;3.07;;;9.70;99.90;;;;;;5109906;28;20208;-72
2023/05/17 02:14:18;;;;;;;10.17;2.77;;;9.60;99.90;;;;;;5103992;28;20363;-73
2023/05/17 02:16:44;;;;;;;9.43;3.50;;;9.70;99.90;;;;;;5099666;28;20254;-70
2023/05/17 02:19:11;;;;;;;5.20;2.87;;;9.70;99.90;;;;;;5104991;28;20262;-72
2023/05/17 02:21:37;;;;;;;9.97;3.10;;;9.70;99.90;;;;;;5105241;28;20166;-73
2023/05/17 02:24:03;;;;;;;11.17;2.83;;;9.70;99.90;;;;;;5107882;28;20200;-71
2023/05/17 02:26:30;;;;;;;11.80;2.73;;;9.70;99.90;;;;;;5103982;28;20206;-72
2023/05/17 02:28:56;;;;;;;10.73;3.30;;;9.80;99.90;;;;;;5074867;28;20214;-73
2023/05/17 02:31:25;;;;;;;9.97;3.00;;;9.80;99.90;;;;;;5097723;28;20218;-72
2023/05/17 02:33:54;;;;;;;11.00;2.83;;;9.70;99.90;;;;;;5091546;28;20228;-72
2023/05/17 02:36:20;;;;;;;16.57;3.13;;;9.70;99.90;;;;;;5094906;28;20261;-71
2023/05/17 02:38:45;;;;;;;11.53;3.40;;;9.80;99.90;;;;;;5096661;28;20658;-72
2023/05/17 02:41:11;;;;;;;10.37;2.60;;;9.80;99.90;;;;;;5083578;28;20240;-70
2023/05/17 02:43:37;;;;;;;10.73;2.70;;;9.90;99.90;;;;;;5102224;28;20813;-71
2023/05/17 02:46:03;;;;;;;10.13;3.20;;;9.90;99.90;;;;;;5106208;28;20235;-72
2023/05/17 02:48:28;;;;;;;8.60;2.97;;;9.90;99.90;;;;;;5085853;28;20263;-71
2023/05/17 02:50:54;;;;;;;8.93;3.00;;;9.90;99.90;;;;;;5100340;28;20162;-72
2023/05/17 02:53:20;;;;;;;8.43;2.60;;;9.90;99.90;;;;;;5097759;28;20233;-71
2023/05/17 02:55:45;;;;;;;11.07;2.70;;;10.00;99.90;;;;;;5095027;28;20609;-72
2023/05/17 02:58:11;;;;;;;8.80;2.80;;;10.00;99.90;;;;;;5098578;28;20206;-72
2023/05/17 03:00:37;;;;;;;14.63;3.13;;;10.00;99.90;;;;;;5103474;28;20175;-73
2023/05/17 03:03:02;;;;;;;13.77;3.63;;;9.90;99.90;;;;;;5095517;28;20637;-71
2023/05/17 03:05:28;;;;;;;13.60;3.17;;;10.00;99.90;;;;;;5079334;28;20202;-71
2023/05/17 03:07:53;;;;;;;12.77;3.20;;;10.00;99.90;;;;;;5092020;28;20207;-73
2023/05/17 03:10:19;;;;;;;8.93;3.37;;;9.90;99.90;;;;;;5095227;28;20292;-72
2023/05/17 03:12:45;;;;;;;11.57;3.93;;;10.00;99.90;;;;;;5098820;28;20832;-72
2023/05/17 03:15:11;;;;;;;8.47;2.87;;;10.00;99.90;;;;;;5098902;28;20201;-72
2023/05/17 03:17:37;;;;;;;10.80;3.23;;;10.00;99.90;;;;;;5100332;28;20205;-73
2023/05/17 03:20:03;;;;;;;11.70;3.77;;;10.00;99.90;;;;;;5090707;28;20206;-73
2023/05/17 03:22:28;;;;;;;8.80;3.37;;;10.00;99.90;;;;;;5105284;28;20202;-71
2023/05/17 03:24:54;;;;;;;14.37;3.30;;;10.00;99.90;;;;;;5102763;28;20297;-74
2023/05/17 03:27:19;;;;;;;7.10;2.90;;;9.90;99.90;;;;;;5102404;28;20238;-72
2023/05/17 03:29:45;;;;;;;12.53;3.93;;;9.90;99.90;;;;;;5100979;27;20178;-73
2023/05/17 03:32:11;;;;;;;11.33;3.30;;;9.90;99.90;;;;;;5084719;28;20225;-73
2023/05/17 03:34:36;;;;;;;12.37;3.70;;;10.00;99.90;;;;;;5104187;28;20203;-72
2023/05/17 03:37:02;;;;;;;9.90;3.27;;;10.00;99.90;;;;;;5099481;28;21697;-72
2023/05/17 03:39:27;;;;;;;6.80;2.90;;;10.10;99.90;;;;;;5097919;28;20178;-73
2023/05/17 03:41:54;;;;;;;9.20;2.87;;;10.10;99.90;;;;;;5100891;28;20178;-73
2023/05/17 03:44:20;;;;;;;8.10;3.43;;;10.10;99.90;;;;;;5101284;28;20244;-72
2023/05/17 03:46:45;;;;;;;10.50;2.87;;;10.00;99.90;;;;;;5101187;28;20245;-73
2023/05/17 03:49:11;;;;;;;12.43;4.13;;;10.10;99.90;;;;;;5098823;28;20246;-73
2023/05/17 03:51:37;;;;;;;10.90;3.33;;;10.20;99.90;;;;;;5100433;28;20656;-71
2023/05/17 03:54:02;;;;;;;15.37;3.57;;;10.10;99.90;;;;;;5090605;28;20300;-73
2023/05/17 03:56:28;;;;;;;19.50;4.03;;;10.10;99.90;;;;;;5095662;28;20210;-73
2023/05/17 03:58:54;;;;;;;15.57;4.17;;;10.20;99.90;;;;;;5101222;28;21018;-73
2023/05/17 04:01:19;;;;;;;9.17;4.00;;;10.20;99.90;;;;;;5103915;28;20202;-73
2023/05/17 04:03:46;;;;;;;9.17;3.23;;;10.30;99.90;;;;;;5103562;28;20683;-72
2023/05/17 04:06:13;;;;;;;10.97;4.03;;;10.60;99.90;;;;;;5107008;28;20752;-73
2023/05/17 04:08:39;;;;;;;8.33;2.93;;;11.40;99.90;;;;;;5096074;28;20288;-73
2023/05/17 04:11:12;;;;;;;13.00;3.43;;;12.40;99.90;;;;;;5100180;28;20205;-73
2023/05/17 04:13:41;;;;;;;9.43;3.37;;;13.10;99.90;;;;;;5098098;28;20364;-72
2023/05/17 04:16:08;;;;;;;9.20;3.77;;;13.60;99.90;;;;;;5100843;28;20580;-74
2023/05/17 04:18:37;;;;;;;8.63;3.10;;;13.10;99.90;;;;;;5097673;28;20560;-72
2023/05/17 04:21:04;;;;;;;13.10;3.78;;;13.70;99.90;;;;;;5102923;28;20653;-73
2023/05/17 04:23:32;;;;;;;15.98;3.88;;;14.50;99.90;;;;;;5095290;28;20710;-73
2023/05/17 04:25:57;;;;;;;10.73;4.15;;;15.00;99.90;;;;;;5099518;28;20218;-72
2023/05/17 04:28:24;;;;;;;11.00;4.60;;;15.80;99.90;;;;;;5094451;28;20305;-71
2023/05/17 04:30:51;;;;;;;9.88;3.72;;;15.80;99.90;;;;;;5103483;28;20206;-73
2023/05/17 04:33:17;;;;;;;9.80;3.75;;;16.20;99.90;;;;;;5091666;28;20527;-73
2023/05/17 04:35:43;;;;;;;10.20;4.50;;;16.00;99.90;;;;;;5100954;28;20263;-74
2023/05/17 04:38:08;;;;;;;10.18;4.28;;;15.50;99.90;;;;;;5095963;27;20210;-73
2023/05/17 04:40:35;;;;;;;12.18;4.55;;;15.40;99.90;;;;;;5104281;28;20206;-71
2023/05/17 04:43:01;;;;;;;9.85;4.20;;;16.10;99.90;;;;;;5097461;28;20637;-73
2023/05/17 04:45:26;;;;;;;11.35;4.07;;;16.40;99.90;;;;;;5103654;28;20225;-72
2023/05/17 04:47:53;;;;;;;7.63;3.85;;;17.10;99.90;;;;;;5089346;28;20668;-73
2023/05/17 04:50:18;;;;;;;9.98;3.17;;;18.20;99.90;;;;;;5104321;28;20704;-73
2023/05/17 04:52:45;;;;;;;9.63;4.13;;;18.40;99.90;;;;;;5104681;28;20206;-73
2023/05/17 04:55:12;;;;;;;11.20;4.30;;;18.30;99.90;;;;;;5109338;28;20224;-73
2023/05/17 04:57:37;;;;;;;11.73;4.18;;;18.30;99.90;;;;;;5102169;28;20185;-73
2023/05/17 05:00:05;;;;;;;12.10;4.13;;;18.90;99.90;;;;;;5103909;28;20166;-73
2023/05/17 05:02:31;;;;;;;12.35;4.30;;;19.20;99.90;;;;;;5085168;28;20242;-72
2023/05/17 05:04:57;;;;;;;9.82;4.47;;;19.20;99.90;;;;;;5102242;28;20210;-73
2023/05/17 05:07:23;;;;;;;11.90;4.55;;;19.90;99.90;;;;;;5099717;28;20213;-73
2023/05/17 05:09:49;;;;;;;11.25;4.50;;;20.10;99.90;;;;;;5103115;28;20274;-74
2023/05/17 05:12:15;;;;;;;13.02;4.57;;;20.60;99.90;;;;;;5101823;28;20166;-73
2023/05/17 05:14:40;;;;;;;10.70;4.80;;;19.90;99.90;;;;;;5101068;28;20216;-73
2023/05/17 05:17:06;;;;;;;13.93;5.47;;;20.10;99.90;;;;;;5102712;28;20404;-73
2023/05/17 05:19:32;;;;;;;10.73;4.15;;;20.60;99.90;;;;;;5108592;28;20264;-74
2023/05/17 05:21:58;;;;;;;9.25;4.25;;;20.80;99.90;;;;;;5106480;28;20210;-73
2023/05/17 05:24:23;;;;;;;15.60;4.40;;;20.40;99.90;;;;;;5096355;28;20194;-73
2023/05/17 05:26:49;;;;;;;10.38;4.55;;;20.20;99.90;;;;;;5092306;28;20176;-75
2023/05/17 05:29:14;;;;;;;9.05;3.95;;;20.20;99.90;;;;;;5103086;28;20237;-73
2023/05/17 05:31:40;;;;;;;10.95;4.15;;;19.40;99.90;;;;;;5102554;28;20206;-72
2023/05/17 05:34:06;;;;;;;10.50;3.67;;;17.80;99.90;;;;;;5101948;28;20258;-74
2023/05/17 05:36:32;;;;;;;14.60;4.82;;;17.10;99.90;;;;;;5104021;28;20189;-72
2023/05/17 05:38:57;;;;;;;10.40;4.15;;;17.90;99.90;;;;;;5099083;28;20207;-73
2023/05/17 05:41:23;;;;;;;10.70;4.07;;;18.30;99.90;;;;;;5099015;28;20214;-73
2023/05/17 05:43:48;;;;;;;12.13;4.18;;;19.10;99.90;;;;;;5102246;28;20226;-73
2023/05/17 05:46:14;;;;;;;12.38;4.38;;;18.70;99.90;;;;;;5102850;28;20229;-74
2023/05/17 05:48:40;;;;;;;11.95;4.20;;;18.60;99.90;;;;;;5099813;28;20233;-73
2023/05/17 05:51:06;;;;;;;12.25;3.80;;;18.00;99.90;;;;;;5103485;28;20158;-73
2023/05/17 05:53:32;;;;;;;12.10;3.90;;;16.70;99.90;;;;;;5105323;28;20210;-72
2023/05/17 05:55:58;;;;;;;15.15;9.68;;;16.80;99.90;;;;;;5108358;28;20250;-72
2023/05/17 05:58:23;;;;;;;8.70;3.88;;;17.90;99.90;;;;;;5104794;28;20210;-73
2023/05/17 06:00:49;;;;;;;10.63;3.58;;;18.00;99.90;;;;;;5106323;28;20213;-74
2023/05/17 06:03:15;;;;;;;13.88;3.90;;;18.50;99.90;;;;;;5103214;28;20684;-73
2023/05/17 06:05:41;;;;;;;8.00;4.05;;;18.20;99.90;;;;;;5105469;28;20215;-73
2023/05/17 06:08:06;;;;;;;10.27;3.15;;;18.20;99.90;;;;;;5101818;28;20361;-73
2023/05/17 06:10:32;;;;;;;10.70;3.05;;;17.10;99.90;;;;;;5102591;28;20204;-73
2023/05/17 06:12:58;;;;;;;12.05;3.15;;;16.30;99.90;;;;;;5095985;28;20217;-73
2023/05/17 06:15:23;;;;;;;7.32;2.78;;;16.00;99.90;;;;;;5104568;28;20276;-72
2023/05/17 06:17:49;;;;;;;9.32;2.95;;;15.10;99.90;;;;;;5102888;28;20175;-71
2023/05/17 06:20:15;;;;;;;10.63;3.10;;;15.00;99.90;;;;;;5103959;28;20205;-72
2023/05/17 06:22:42;;;;;;;8.70;3.38;;;14.80;99.90;;;;;;5092967;28;20665;-72
2023/05/17 06:25:09;;;;;;;10.40;3.20;;;15.50;99.90;;;;;;5098443;28;20744;-73
2023/05/17 06:27:35;;;;;;;11.57;3.42;;;15.90;99.90;;;;;;5091606;28;20193;-73
2023/05/17 06:30:01;;;;;;;8.00;2.55;;;15.70;99.90;;;;;;5092053;28;20174;-72
2023/05/17 06:32:26;;;;;;;15.20;4.82;;;15.30;99.90;;;;;;5088105;28;20221;-73
2023/05/17 06:34:52;;;;;;;12.15;3.75;;;14.80;99.90;;;;;;5100990;28;20233;-73
2023/05/17 06:37:18;;;;;;;9.40;3.25;;;14.90;99.90;;;;;;5102023;28;20212;-73
2023/05/17 06:39:43;;;;;;;12.57;2.95;;;17.10;99.90;;;;;;5097280;28;20217;-74
2023/05/17 06:42:09;;;;;;;8.00;2.42;;;18.90;99.90;;;;;;5085104;28;20230;-73
2023/05/17 06:44:34;;;;;;;11.75;2.72;;;21.30;99.90;;;;;;5103890;28;20588;-73
2023/05/17 06:47:00;;;;;;;11.25;3.20;;;22.90;99.90;;;;;;5103337;28;20307;-75
2023/05/17 06:49:26;;;;;;;7.68;2.33;;;23.80;96.30;;;;;;5109000;28;20212;-73
2023/05/17 06:51:54;;;;;;;7.25;2.40;;;24.50;93.50;;;;;;5106042;28;20912;-72
2023/05/17 06:54:20;;;;;;;7.50;2.30;;;25.10;91.00;;;;;;5105787;28;20683;-73
2023/05/17 06:56:45;;;;;;;9.10;2.63;;;25.60;88.40;;;;;;5107160;28;20216;-71
2023/05/17 06:59:11;;;;;;;10.07;2.72;;;26.00;85.60;;;;;;5102847;28;20240;-71
2023/05/17 07:01:36;;;;;;;10.13;3.17;;;25.90;83.60;;;;;;5106769;28;20214;-73
2023/05/17 07:04:02;;;;;;;6.78;2.47;;;26.20;83.40;;;;;;5106378;28;20688;-73
2023/05/17 07:06:27;;;;;;;9.80;3.40;;;26.40;79.70;;;;;;5101977;28;20174;-73
2023/05/17 07:08:53;;;;;;;10.00;3.20;;;26.30;79.70;;;;;;5104501;28;20198;-73
2023/05/17 07:11:19;;;;;;;9.93;3.33;;;24.40;83.40;;;;;;5101499;28;20754;-72
2023/05/17 07:13:45;;;;;;;9.68;3.20;;;22.80;89.60;;;;;;5099789;28;20231;-72
2023/05/17 07:16:10;;;;;;;9.10;3.50;;;20.60;92.40;;;;;;5099189;28;20388;-73
2023/05/17 07:18:36;;;;;;;12.30;3.50;;;19.10;95.90;;;;;;5101246;28;20195;-73
2023/05/17 07:21:01;;;;;;;8.25;2.70;;;18.40;98.30;;;;;;5106436;28;20216;-73
2023/05/17 07:23:27;;;;;;;8.52;4.28;;;18.30;99.90;;;;;;5102754;28;20270;-73
2023/05/17 07:25:52;;;;;;;14.10;2.80;;;19.90;98.80;;;;;;5102337;28;20292;-73
2023/05/17 07:28:18;;;;;;;7.55;2.83;;;21.00;96.10;;;;;;5098831;28;20220;-73
2023/05/17 07:30:44;;;;;;;5.97;2.50;;;21.60;94.40;;;;;;5104382;28;20220;-72
2023/05/17 07:33:10;;;;;;;8.45;2.78;;;21.80;93.10;;;;;;5085864;28;20179;-73
2023/05/17 07:35:35;;;;;;;9.80;2.90;;;22.10;92.50;;;;;;5105677;28;20605;-72
2023/05/17 07:38:01;;;;;;;6.25;2.58;;;23.20;91.50;;;;;;5103590;28;20236;-73
2023/05/17 07:40:27;;;;;;;8.60;2.90;;;24.20;89.90;;;;;;5103922;28;20213;-72
2023/05/17 07:42:52;;;;;;;8.57;3.17;;;23.30;89.80;;;;;;5102848;28;20780;-72
2023/05/17 07:45:18;;;;;;;11.63;2.85;;;22.60;90.40;;;;;;5104227;28;20213;-71
2023/05/17 07:47:44;;;;;;;10.60;2.92;;;22.40;90.90;;;;;;5107731;28;20182;-73
2023/05/17 07:50:10;;;;;;;7.85;3.30;;;21.90;90.50;;;;;;5101287;28;20197;-74
2023/05/17 07:52:35;;;;;;;9.50;3.25;;;22.10;90.20;;;;;;5096056;28;20225;-73
2023/05/17 07:55:02;;;;;;;9.98;2.65;;;21.30;91.20;;;;;;5096458;28;20232;-72
2023/05/17 07:57:28;;;;;;;7.97;2.67;;;20.60;91.90;;;;;;5100412;28;20555;-73
2023/05/17 07:59:53;;;;;;;6.28;2.72;;;21.50;91.40;;;;;;5100371;28;20170;-73
2023/05/17 08:02:19;;;;;;;7.60;2.60;;;22.20;90.50;;;;;;5102372;28;20286;-74
2023/05/17 08:04:44;;;;;;;7.63;2.83;;;22.50;88.80;;;;;;5102145;28;20209;-72
2023/05/17 08:07:10;;;;;;;8.50;2.35;;;22.30;87.30;;;;;;5092442;28;20201;-75
2023/05/17 08:09:36;;;;;;;10.43;2.65;;;21.70;85.60;;;;;;5105527;28;20304;-75
2023/05/17 08:12:01;;;;;;;9.40;2.75;;;22.40;86.00;;;;;;5105355;28;20185;-72
2023/05/17 08:14:27;;;;;;;9.88;2.15;;;23.30;84.10;;;;;;5101825;28;20296;-74
2023/05/17 08:16:53;;;;;;;8.93;2.42;;;23.00;85.10;;;;;;5105367;28;20218;-72
2023/05/17 08:19:19;;;;;;;9.48;2.63;;;22.70;85.50;;;;;;5103222;28;20258;-73
2023/05/17 08:21:45;;;;;;;6.53;2.40;;;22.90;85.10;;;;;;5100009;28;20209;-72
2023/05/17 08:24:11;;;;;;;8.90;2.78;;;22.80;84.80;;;;;;5106231;28;20194;-73
2023/05/17 08:26:37;;;;;;;8.85;2.90;;;22.00;84.90;;;;;;5105360;28;20684;-73
2023/05/17 08:29:03;;;;;;;11.45;2.78;;;21.70;87.30;;;;;;5106898;28;20221;-76
2023/05/17 08:31:30;;;;;;;9.15;3.35;;;21.60;85.80;;;;;;5109101;28;20197;-76
2023/05/17 08:33:56;;;;;;;8.70;2.72;;;22.10;85.70;;;;;;5105107;28;20201;-75
2023/05/17 08:36:21;;;;;;;9.38;2.88;;;22.70;82.60;;;;;;5105744;28;20625;-75
2023/05/17 08:38:47;;;;;;;9.73;2.85;;;22.60;81.90;;;;;;5087872;28;20558;-74
2023/05/17 08:41:13;;;;;;;9.45;2.47;;;22.10;82.10;;;;;;5106147;28;20687;-76
2023/05/17 08:43:39;;;;;;;7.95;2.80;;;23.00;81.80;;;;;;5104177;28;20214;-77
2023/05/17 08:46:05;;;;;;;9.93;2.72;;;22.90;81.90;;;;;;5104282;28;20324;-77
2023/05/17 08:48:35;;;;;;;8.65;2.70;;;23.30;81.30;;;;;;5084727;28;20252;-77
2023/05/17 08:51:01;;;;;;;8.02;2.90;;;22.90;82.70;;;;;;5103775;28;20174;-76
2023/05/17 08:53:27;;;;;;;11.35;2.88;;;22.90;82.20;;;;;;5099426;28;20691;-74
2023/05/17 08:55:59;;;;;;;9.07;2.70;;;22.70;83.20;;;;;;5105102;28;20210;-76
2023/05/17 08:58:28;;;;;;;11.43;3.20;;;22.60;81.50;;;;;;5102941;28;20205;-76
2023/05/17 09:00:56;;;;;;;7.97;2.45;;;22.50;81.40;;;;;;5102289;28;20209;-74
2023/05/17 09:03:24;;;;;;;7.30;2.30;;;22.10;80.00;;;;;;5111000;28;20261;-76
2023/05/17 09:05:54;;;;;;;6.22;2.58;;;22.20;78.70;;;;;;5113967;28;20586;-76
2023/05/17 09:08:22;;;;;;;10.65;2.28;;;22.80;78.00;;;;;;5094010;28;20212;-75
2023/05/17 09:10:49;;;;;;;9.52;2.42;;;22.70;77.60;;;;;;5107798;28;20672;-76
2023/05/17 09:13:15;;;;;;;12.30;3.00;;;22.10;79.10;;;;;;5101624;28;20202;-75
2023/05/17 09:15:43;;;;;;;5.78;2.30;;;20.80;81.50;;;;;;5118992;28;20217;-75
2023/05/17 09:18:11;;;;;;;10.63;2.67;;;20.90;84.10;;;;;;5121488;28;20221;-76
2023/05/17 09:20:38;;;;;;;9.95;2.70;;;21.30;83.60;;;;;;5095058;28;20202;-75
2023/05/17 09:23:13;;;;;;;10.60;3.88;;;20.90;82.90;;;;;;5099341;28;20208;-74
2023/05/17 09:25:47;;;;;;;10.63;2.60;;;20.90;83.80;;;;;;5093227;28;20300;-74
2023/05/17 09:28:13;;;;;;;11.35;2.30;;;21.20;83.20;;;;;;5105753;28;20224;-74
2023/05/17 09:30:40;;;;;;;12.93;3.53;;;20.80;81.70;;;;;;5115917;28;20243;-73
2023/05/17 09:33:10;;;;;;;8.27;2.55;;;20.20;84.50;;;;;;5095711;28;20258;-74
2023/05/17 09:35:37;;;;;;;13.38;3.13;;;19.70;86.10;;;;;;5112390;28;20206;-73
2023/05/17 09:38:10;;;;;;;8.55;2.92;;;20.00;86.00;;;;;;5117369;28;20206;-74
2023/05/17 09:40:38;;;;;;;9.98;3.60;;;20.30;85.30;;;;;;5094766;28;20201;-74
2023/05/17 09:43:04;;;;;;;7.47;2.45;;;19.70;87.10;;;;;;5111760;28;20221;-73
2023/05/17 09:45:34;;;;;;;9.52;2.47;;;20.00;87.90;;;;;;5115578;28;20197;-72
2023/05/17 09:48:17;;;;;;;10.18;2.28;;;18.80;86.60;;;;;;5108740;28;20204;-71
2023/05/17 09:50:48;;;;;;;11.40;2.20;;;17.50;86.50;;;;;;5106711;28;20279;-71
2023/05/17 09:53:30;;;;;;;7.82;2.25;;;17.10;90.00;;;;;;5102867;28;20206;-71
2023/05/17 09:55:58;;;;;;;15.40;2.55;;;17.50;89.50;;;;;;5107131;28;20206;-71
2023/05/17 09:58:25;;;;;;;11.77;1.90;;;17.90;90.50;;;;;;5089548;28;20224;-71
2023/05/17 10:00:53;;;;;;;5.97;2.03;;;18.60;90.30;;;;;;5105174;28;20710;-72
2023/05/17 10:03:19;;;;;;;13.25;2.55;;;17.70;90.00;;;;;;5108670;28;20182;-71
2023/05/17 10:05:46;;;;;;;8.15;2.17;;;17.80;91.10;;;;;;5089412;28;20300;-72
2023/05/17 10:08:18;;;;;;;5.30;1.45;;;17.70;90.40;;;;;;5104863;28;20722;-70
2023/05/17 10:10:44;;;;;;;12.00;1.70;;;18.00;90.30;;;;;;5103318;28;20218;-71
2023/05/17 10:13:11;;;;;;;9.80;2.30;;;17.60;90.20;;;;;;5098943;28;20203;-71
2023/05/17 10:15:38;;;;;;;8.35;3.17;;;17.40;90.30;;;;;;5100832;28;21047;-73
2023/05/17 10:18:06;;;;;;;12.23;4.47;;;17.70;91.40;;;;;;5100716;28;20186;-74
2023/05/17 10:20:32;;;;;;;13.73;2.88;;;18.00;89.80;;;;;;5102737;28;20278;-73
2023/05/17 10:23:02;;;;;;;6.15;1.92;;;18.30;88.90;;;;;;5082352;28;20234;-73
2023/05/17 10:25:28;;;;;;;7.13;2.22;;;18.20;89.70;;;;;;5100304;28;20259;-73
2023/05/17 10:27:54;;;;;;;10.27;3.30;;;18.20;90.20;;;;;;5102166;28;20213;-75
2023/05/17 10:30:22;;;;;;;6.70;2.42;;;17.50;90.50;;;;;;5100764;28;20485;-72
2023/05/17 10:32:49;;;;;;;8.65;1.88;;;16.90;91.40;;;;;;5103278;28;20174;-76
2023/05/17 10:35:16;;;;;;;6.90;1.88;;;16.60;92.40;;;;;;5088243;28;20231;-75
2023/05/17 10:37:42;;;;;;;11.50;2.88;;;17.30;92.30;;;;;;5085291;28;20209;-73
2023/05/17 10:40:12;;;;;;;9.35;2.50;;;17.80;91.70;;;;;;5098738;28;20644;-72
2023/05/17 10:42:51;;;;;;;7.68;1.42;;;17.60;91.50;;;;;;5106270;28;20224;-73
2023/05/17 10:45:20;;;;;;;5.82;2.15;;;17.40;91.20;;;;;;5100239;28;21034;-74
2023/05/17 10:47:47;;;;;;;10.68;2.22;;;17.60;91.30;;;;;;5082561;28;20656;-74
2023/05/17 10:50:13;;;;;;;9.25;1.92;;;17.90;91.70;;;;;;5104468;28;20236;-74
2023/05/17 10:52:46;;;;;;;7.82;1.60;;;18.20;90.40;;;;;;5100560;28;20199;-75
2023/05/17 10:55:12;;;;;;;11.65;1.60;;;17.70;89.80;;;;;;5102156;28;20217;-77
2023/05/17 10:57:37;;;;;;;7.15;2.72;;;16.80;91.00;;;;;;5099610;28;20219;-74
2023/05/17 11:00:06;;;;;;;10.63;2.70;;;17.20;92.20;;;;;;5099568;28;20198;-77
2023/05/17 11:02:33;;;;;;;6.65;2.08;;;17.70;91.60;;;;;;5103126;28;20206;-74
2023/05/17 11:04:59;;;;;;;6.68;2.05;;;18.20;91.30;;;;;;5100096;28;20768;-76
2023/05/17 11:07:26;;;;;;;9.20;2.17;;;18.40;90.40;;;;;;5087087;28;20683;-76
2023/05/17 11:10:07;;;;;;;10.77;2.28;;;17.80;90.20;;;;;;5099897;28;20245;-73
2023/05/17 11:12:54;;;;;;;8.13;1.92;;;17.80;91.30;;;;;;5099053;28;20647;-75
2023/05/17 11:15:24;;;;;;;8.80;2.40;;;18.10;91.40;;;;;;5097503;28;20680;-76
2023/05/17 11:17:55;;;;;;;13.65;2.80;;;18.10;91.20;;;;;;5102242;28;20198;-75
2023/05/17 11:20:24;;;;;;;10.98;2.53;;;18.40;90.60;;;;;;5087088;28;20580;-76
2023/05/17 11:22:58;;;;;;;12.20;2.15;;;18.40;91.20;;;;;;5097734;28;20210;-73
2023/05/17 11:25:27;;;;;;;8.95;2.00;;;18.30;90.50;;;;;;5099397;28;20215;-76
2023/05/17 11:27:53;;;;;;;8.40;2.35;;;18.50;90.30;;;;;;5095991;28;20789;-74
2023/05/17 11:30:25;;;;;;;5.22;2.17;;;18.60;90.70;;;;;;5115018;28;20200;-75
2023/05/17 11:32:59;;;;;;;13.25;1.92;;;19.00;90.90;;;;;;5112168;28;20380;-76
2023/05/17 11:35:32;;;;;;;12.82;2.28;;;18.50;90.50;;;;;;5102815;28;20201;-76
2023/05/17 11:38:17;;;;;;;6.53;1.92;;;17.80;90.80;;;;;;5100768;28;20293;-75
2023/05/17 11:40:48;;;;;;;7.65;1.90;;;18.20;91.60;;;;;;5094048;28;20201;-76
2023/05/17 11:43:18;;;;;;;9.18;2.90;;;18.10;91.90;;;;;;5093715;28;20221;-74
2023/05/17 11:45:47;;;;;;;6.75;2.30;;;18.30;92.10;;;;;;5105162;28;20221;-78
2023/05/17 11:48:13;;;;;;;9.18;2.58;;;18.30;91.60;;;;;;5103982;28;20796;-76
2023/05/17 11:50:41;;;;;;;7.50;2.25;;;18.30;91.00;;;;;;5102095;28;20221;-78
2023/05/17 11:53:10;;;;;;;8.05;2.40;;;18.50;90.60;;;;;;5088157;28;20206;-77
2023/05/17 11:55:39;;;;;;;9.60;2.30;;;18.20;90.30;;;;;;5087576;28;20669;-76
2023/05/17 11:58:08;;;;;;;10.50;1.80;;;18.20;90.40;;;;;;5096950;28;20215;-75
2023/05/17 12:00:33;;;;;;;10.50;2.42;;;18.30;90.40;;;;;;5096459;28;20605;-75
2023/05/17 12:03:28;;;;;;;7.10;2.35;;;18.20;90.20;;;;;;5103018;27;20217;-75
2023/05/17 12:06:05;;;;;;;5.05;2.00;;;18.20;90.60;;;;;;5095362;28;20596;-75
2023/05/17 12:08:33;;;;;;;7.55;1.83;;;18.10;90.90;;;;;;5104773;28;20227;-75
2023/05/17 12:10:59;;;;;;;9.10;2.70;;;17.80;90.90;;;;;;5082530;28;20213;-74
2023/05/17 12:13:30;;;;;;;8.20;2.05;;;18.10;91.60;;;;;;5091411;28;20209;-74
2023/05/17 12:16:02;;;;;;;15.48;2.50;;;18.10;91.20;;;;;;5096255;28;20293;-74
2023/05/17 12:18:38;;;;;;;8.07;1.95;;;18.10;90.90;;;;;;5083463;28;20223;-74
2023/05/17 12:21:05;;;;;;;5.30;1.75;;;18.10;91.50;;;;;;5110659;28;20177;-73
2023/05/17 12:23:34;;;;;;;9.15;2.22;;;17.90;90.40;;;;;;5106676;28;20198;-74
2023/05/17 12:26:14;;;;;;;10.15;2.53;;;17.70;90.80;;;;;;5105259;28;20416;-72
2023/05/17 12:28:41;;;;;;;10.95;2.78;;;17.50;91.40;;;;;;5104004;28;20217;-76
2023/05/17 12:31:15;;;;;;;9.02;2.53;;;17.50;91.50;;;;;;5093681;28;20210;-79
2023/05/17 12:33:43;;;;;;;9.77;3.05;;;17.70;92.10;;;;;;5096296;28;20201;-75
2023/05/17 12:36:11;;;;;;;6.28;2.15;;;17.60;92.20;;;;;;5104404;28;20171;-74
2023/05/17 12:38:39;;;;;;;6.80;2.67;;;17.70;92.40;;;;;;5106038;28;20584;-75
2023/05/17 12:41:08;;;;;;;13.38;2.83;;;17.70;92.50;;;;;;5106953;28;20743;-74
2023/05/17 12:43:34;;;;;;;9.20;2.45;;;17.70;91.90;;;;;;5100215;28;20907;-74